createdAt,value
2023-01-19T05:29:58.508Z,98590.31
2023-01-19T05:34:01.633Z,98590.31
2023-01-19T05:38:04.391Z,98608.25
2023-01-19T05:42:07.633Z,98600.06
2023-01-19T05:46:10.259Z,98590.22
2023-01-19T05:50:13.196Z,98587.47
2023-01-19T05:54:15.863Z,98587.75
2023-01-19T05:58:18.946Z,98577.47
2023-01-19T06:02:28.630Z,98561.75
2023-01-19T06:06:32.001Z,98557.53
2023-01-19T06:10:34.806Z,98565.28
2023-01-19T06:14:38.219Z,98561.75
2023-01-19T06:18:41.309Z,98568.78
2023-01-19T06:22:44.302Z,98601.09
2023-01-19T06:26:47.154Z,98595.88
2023-01-19T06:30:54.264Z,98592.59
2023-01-19T06:34:57.205Z,98578.59
2023-01-19T06:39:03.654Z,98571.13
2023-01-19T06:43:07.502Z,98578.28
2023-01-19T06:47:15.928Z,98591.75
2023-01-19T06:51:18.969Z,98585.66
2023-01-19T06:55:22.212Z,98587.25
2023-01-19T06:59:27.936Z,98584.50
2023-01-19T07:03:31.672Z,98594.19
2023-01-19T07:07:34.331Z,98611.78
2023-01-19T07:11:37.303Z,98605.69
2023-01-19T07:15:40.122Z,98604.03
2023-01-19T07:19:43.196Z,98580.56
2023-01-19T07:23:49.391Z,98583.66
2023-01-19T07:27:52.620Z,98584.28
2023-01-19T07:31:55.389Z,98582.19
2023-01-19T07:35:58.681Z,98604.53
2023-01-19T07:40:01.586Z,98629.22
2023-01-19T07:44:05.482Z,98628.16
2023-01-19T07:48:08.320Z,98623.69
2023-01-19T07:52:13.348Z,98624.94
2023-01-19T07:56:16.936Z,98625.75
2023-01-19T08:00:22.375Z,98622.97
2023-01-19T08:04:30.630Z,98627.53
2023-01-19T08:08:34.119Z,98631.19
2023-01-19T08:12:37.528Z,98619.31
2023-01-19T08:16:40.345Z,98619.31
2023-01-19T08:20:43.662Z,98620.28
2023-01-19T08:24:46.944Z,98620.03
2023-01-19T08:28:51.345Z,98623.66
2023-01-19T08:32:58.391Z,98633.84
2023-01-19T08:37:01.907Z,98637.13
2023-01-19T08:41:04.835Z,98637.41
2023-01-19T08:45:09.429Z,98642.97
2023-01-19T08:49:18.201Z,98643.91
2023-01-19T08:53:44.216Z,98641.09
2023-01-19T08:57:51.040Z,98638.03
2023-01-19T09:01:59.980Z,98640.47
2023-01-19T09:06:05.652Z,98630.94
2023-01-19T09:10:10.633Z,98632.88
2023-01-19T09:14:13.695Z,98620.69
2023-01-19T09:18:20.043Z,98622.44
2023-01-19T09:22:23.193Z,98625.34
2023-01-19T09:26:26.379Z,98635.31
2023-01-19T09:30:29.473Z,98641.97
2023-01-19T09:34:32.762Z,98636.16
2023-01-19T09:38:35.674Z,98640.47
2023-01-19T09:42:51.983Z,98630.69
2023-01-19T09:46:54.570Z,98633.78
2023-01-19T09:51:01.314Z,98639.56
2023-01-19T09:55:04.176Z,98648.84
2023-01-19T09:59:24.773Z,98651.03
2023-01-19T10:03:27.558Z,98649.38
2023-01-19T10:07:36.872Z,98655.59
2023-01-19T10:11:53.168Z,98656.91
2023-01-19T10:16:14.919Z,98649.47
2023-01-19T10:20:26.656Z,98647.97
2023-01-19T10:24:33.494Z,98656.34
2023-01-19T10:28:36.763Z,98661.59
2023-01-19T10:32:41.878Z,98653.56
2023-01-19T10:36:49.776Z,98664.22
2023-01-19T10:41:03.729Z,98661.56
2023-01-19T10:45:40.896Z,98661.56
2023-01-19T10:50:01.895Z,98656.62
2023-01-19T10:54:36.296Z,98655.31
2023-01-19T10:58:55.101Z,98652.28
2023-01-19T11:03:34.693Z,98641.66
2023-01-19T11:07:46.524Z,98656.00
2023-01-19T11:12:20.288Z,98652.09
2023-01-19T11:16:32.576Z,98649.59
2023-01-19T11:20:55.614Z,98671.69
2023-01-19T11:25:05.725Z,98664.50
2023-01-19T11:29:26.850Z,98672.28
2023-01-19T11:33:52.980Z,98683.75
2023-01-19T11:38:13.826Z,98685.94
2023-01-19T11:42:18.605Z,98685.97
2023-01-19T11:46:35.279Z,98686.38
2023-01-19T11:50:45.677Z,98678.44
2023-01-19T11:55:18.221Z,98689.03
2023-01-19T11:59:27.160Z,98677.00
2023-01-19T12:04:19.312Z,98681.78
2023-01-19T12:09:16.595Z,98691.81
2023-01-19T12:13:25.452Z,98713.22
2023-01-19T12:17:51.342Z,98727.25
2023-01-19T12:22:00.202Z,98740.44
2023-01-19T12:26:33.507Z,98742.47
2023-01-19T12:30:38.661Z,98741.78
2023-01-19T12:34:56.784Z,98743.78
2023-01-19T12:39:21.824Z,98749.78
2023-01-19T12:43:25.608Z,98767.34
2023-01-19T12:47:28.403Z,98773.91
2023-01-19T12:51:32.200Z,98770.22
2023-01-19T12:55:39.375Z,98771.28
2023-01-19T12:59:44.099Z,98777.22
2023-01-19T13:04:02.612Z,98789.13
2023-01-19T13:08:06.215Z,98799.34
2023-01-19T13:12:15.028Z,98815.34
2023-01-19T13:16:21.355Z,98833.78
2023-01-19T13:20:31.315Z,98819.22
2023-01-19T13:25:08.344Z,98837.13
2023-01-19T13:29:16.560Z,98842.66
2023-01-19T13:33:24.385Z,98852.41
2023-01-19T13:37:41.694Z,98862.50
2023-01-19T13:41:45.445Z,98862.50
2023-01-19T13:45:53.346Z,98868.75
2023-01-19T13:49:57.814Z,98868.47
2023-01-19T13:54:03.892Z,98861.16
2023-01-19T13:58:22.576Z,98873.13
2023-01-19T14:02:25.405Z,98877.81
2023-01-19T14:06:45.599Z,98893.75
2023-01-19T14:11:02.350Z,98902.50
2023-01-19T14:15:13.136Z,98900.62
2023-01-19T14:19:15.898Z,98907.78
2023-01-19T14:23:38.699Z,98898.09
2023-01-19T14:27:41.442Z,98897.34
2023-01-19T14:31:53.280Z,98919.00
2023-01-19T14:35:55.956Z,98928.94
2023-01-19T14:40:08.313Z,98934.25
2023-01-19T14:44:11.728Z,98936.84
2023-01-19T14:48:19.501Z,98952.81
2023-01-19T14:52:23.623Z,98950.38
2023-01-19T14:56:28.981Z,98973.03
2023-01-19T15:00:31.984Z,98975.62
2023-01-19T15:04:35.053Z,98993.22
2023-01-19T15:08:39.520Z,98997.06
2023-01-19T15:12:42.662Z,99014.78
2023-01-19T15:16:45.574Z,99017.94
2023-01-19T15:20:48.648Z,98993.78
2023-01-19T15:24:51.362Z,98989.09
2023-01-19T15:28:55.959Z,98970.97
2023-01-19T15:32:59.220Z,98978.13
2023-01-19T15:37:02.174Z,98982.38
2023-01-19T15:41:09.535Z,98989.41
2023-01-19T15:45:25.814Z,99004.38
2023-01-19T15:49:30.974Z,99011.50
